Time;durP1;ratioP1;P1;durP2;ratioP2;P2;SDS_P1;SDS_P2;PMS_P1;PMS_P2;Temp;Humidity;BMP_temperature;BMP_pressure;BME280_temperature;BME280_humidity;BME280_pressure;Samples;Min_cycle;Max_cycle;Signal;HPM_P1;HPM_P2
2023/04/29 00:00:11;;;;;;;0.22;0.20;;;;;;;;;;4976784;28;20442;-85
2023/04/29 00:02:37;;;;;;;0.00;0.00;;;;;;;;;;4993370;28;20065;-85
2023/04/29 00:05:04;;;;;;;0.10;0.00;;;;;;;;;;4992934;28;20458;-86
2023/04/29 00:07:33;;;;;;;0.00;0.00;;;;;;;;;;4976891;28;20047;-85
2023/04/29 00:09:59;;;;;;;0.00;0.00;;;;;;;;;;4992813;28;20049;-86
2023/04/29 00:12:27;;;;;;;0.10;0.00;;;;;;;;;;4977081;28;20038;-86
2023/04/29 00:14:53;;;;;;;0.70;0.17;;;;;;;;;;4993046;28;20054;-85
2023/04/29 00:17:19;;;;;;;2.47;0.32;;;;;;;;;;4992990;28;20053;-86
2023/04/29 00:19:45;;;;;;;0.40;0.22;;;;;;;;;;4992596;28;20089;-86
2023/04/29 00:22:11;;;;;;;0.22;0.13;;;;;;;;;;4992877;28;20453;-86
2023/04/29 00:24:37;;;;;;;1.45;0.70;;;;;;;;;;4992897;28;20038;-85
2023/04/29 00:27:02;;;;;;;0.00;0.00;;;;;;;;;;4993119;28;20045;-86
2023/04/29 00:29:28;;;;;;;0.00;0.00;;;;;;;;;;4992470;28;20070;-86
2023/04/29 00:31:54;;;;;;;0.00;0.00;;;;;;;;;;4992698;28;20494;-86
2023/04/29 00:34:21;;;;;;;0.00;0.00;;;;;;;;;;4992408;28;20038;-85
2023/04/29 00:36:48;;;;;;;0.28;0.13;;;;;;;;;;4976884;28;20047;-86
2023/04/29 00:39:14;;;;;;;0.25;0.17;;;;;;;;;;4993007;28;20046;-84
2023/04/29 00:41:40;;;;;;;0.20;0.20;;;;;;;;;;4976802;28;20496;-85
2023/04/29 00:44:06;;;;;;;0.05;0.05;;;;;;;;;;4993830;28;20050;-86
2023/04/29 00:46:32;;;;;;;0.45;0.10;;;;;;;;;;4992771;28;20042;-85
2023/04/29 00:48:59;;;;;;;0.20;0.10;;;;;;;;;;4991532;28;20034;-85
2023/04/29 00:51:25;;;;;;;1.00;0.20;;;;;;;;;;4992049;28;20133;-86
2023/04/29 00:53:52;;;;;;;0.00;0.00;;;;;;;;;;4992198;28;20046;-85
2023/04/29 00:56:19;;;;;;;0.80;0.15;;;;;;;;;;4992354;28;20375;-85
2023/04/29 00:58:49;;;;;;;0.00;0.00;;;;;;;;;;4992269;28;20042;-85
2023/04/29 01:01:16;;;;;;;0.52;0.10;;;;;;;;;;4992389;28;20048;-86
2023/04/29 01:03:42;;;;;;;0.00;0.00;;;;;;;;;;4992164;28;20146;-85
2023/04/29 01:06:14;;;;;;;0.00;0.00;;;;;;;;;;4992130;28;20482;-85
2023/04/29 01:09:03;;;;;;;0.08;0.03;;;;;;;;;;4975932;28;20046;-85
2023/04/29 01:11:34;;;;;;;1.23;0.68;;;;;;;;;;4965288;28;20089;-85
2023/04/29 01:14:02;;;;;;;1.08;0.00;;;;;;;;;;4991710;28;20117;-85
2023/04/29 01:16:34;;;;;;;0.00;0.00;;;;;;;;;;4991909;28;20081;-85
2023/04/29 01:19:02;;;;;;;0.00;0.00;;;;;;;;;;4991653;28;20054;-86
2023/04/29 01:21:30;;;;;;;0.17;0.00;;;;;;;;;;4991950;28;20089;-85
2023/04/29 01:23:57;;;;;;;0.00;0.00;;;;;;;;;;4975301;28;20220;-85
2023/04/29 01:26:23;;;;;;;0.85;0.00;;;;;;;;;;4975724;28;20038;-85
2023/04/29 01:29:01;;;;;;;0.00;0.00;;;;;;;;;;4991934;28;20508;-85
2023/04/29 01:31:56;;;;;;;0.20;0.15;;;;;;;;;;4992204;28;20050;-86
2023/04/29 01:34:36;;;;;;;0.00;0.00;;;;;;;;;;4978982;28;20116;-85
2023/04/29 01:37:22;;;;;;;0.32;0.10;;;;;;;;;;4991837;28;20038;-85
2023/04/29 01:39:51;;;;;;;0.00;0.00;;;;;;;;;;4975250;28;20049;-85
2023/04/29 01:42:26;;;;;;;0.00;0.00;;;;;;;;;;4991562;28;20277;-85
2023/04/29 01:44:55;;;;;;;0.00;0.00;;;;;;;;;;4991413;28;20035;-85
2023/04/29 01:47:21;;;;;;;0.00;0.00;;;;;;;;;;4975477;28;20482;-86
2023/04/29 01:49:48;;;;;;;0.10;0.10;;;;;;;;;;4991304;28;20390;-87
2023/04/29 01:52:14;;;;;;;0.00;0.00;;;;;;;;;;4975161;28;20088;-86
2023/04/29 01:54:40;;;;;;;0.00;0.00;;;;;;;;;;4991556;28;20108;-86
2023/04/29 01:57:06;;;;;;;0.55;0.20;;;;;;;;;;4991769;28;20092;-85
2023/04/29 01:59:32;;;;;;;0.00;0.00;;;;;;;;;;4975116;28;20055;-86
2023/04/29 02:01:58;;;;;;;0.00;0.00;;;;;;;;;;4978324;28;20084;-86
2023/04/29 02:04:25;;;;;;;0.20;0.00;;;;;;;;;;4994935;28;20097;-85
2023/04/29 02:06:51;;;;;;;0.00;0.00;;;;;;;;;;4995232;28;20146;-85
2023/04/29 02:09:17;;;;;;;0.00;0.00;;;;;;;;;;4995663;28;20060;-85
2023/04/29 02:11:43;;;;;;;0.00;0.00;;;;;;;;;;4995367;28;20222;-85
2023/04/29 02:14:11;;;;;;;0.00;0.00;;;;;;;;;;4995477;28;20169;-85
2023/04/29 02:16:37;;;;;;;0.00;0.00;;;;;;;;;;4994847;28;20050;-85
2023/04/29 02:19:03;;;;;;;1.75;0.08;;;;;;;;;;4994882;28;20046;-85
2023/04/29 02:21:30;;;;;;;0.05;0.05;;;;;;;;;;4995045;28;20088;-85
2023/04/29 02:23:56;;;;;;;0.00;0.00;;;;;;;;;;4994884;28;20053;-86
2023/04/29 02:26:22;;;;;;;0.00;0.00;;;;;;;;;;4994593;28;20042;-85
2023/04/29 02:28:49;;;;;;;0.00;0.00;;;;;;;;;;4994874;28;20096;-85
2023/04/29 02:31:15;;;;;;;0.00;0.00;;;;;;;;;;4994864;28;20129;-85
2023/04/29 02:33:41;;;;;;;5.95;0.40;;;;;;;;;;4994603;28;20045;-86
2023/04/29 02:36:07;;;;;;;0.00;0.00;;;;;;;;;;4994744;28;20042;-85
2023/04/29 02:38:33;;;;;;;0.03;0.03;;;;;;;;;;4978505;28;20669;-86
2023/04/29 02:40:59;;;;;;;0.30;0.30;;;;;;;;;;4994279;28;20150;-86
2023/04/29 02:43:25;;;;;;;0.20;0.20;;;;;;;;;;4978514;28;20180;-85
2023/04/29 02:45:51;;;;;;;0.17;0.10;;;;;;;;;;4978164;28;20038;-85
2023/04/29 02:48:17;;;;;;;0.43;0.05;;;;;;;;;;4978187;28;20066;-86
2023/04/29 02:50:43;;;;;;;0.00;0.00;;;;;;;;;;4994372;28;20042;-85
2023/04/29 02:53:09;;;;;;;0.00;0.00;;;;;;;;;;4959877;28;20129;-86
2023/04/29 02:55:35;;;;;;;0.00;0.00;;;;;;;;;;4958810;28;20068;-86
2023/04/29 02:58:03;;;;;;;0.00;0.00;;;;;;;;;;4958680;28;20130;-86
2023/04/29 03:00:29;;;;;;;0.10;0.00;;;;;;;;;;4942347;28;20043;-86
2023/04/29 03:02:55;;;;;;;0.00;0.00;;;;;;;;;;4958471;28;20042;-87
2023/04/29 03:05:21;;;;;;;0.00;0.00;;;;;;;;;;4958339;28;20066;-85
2023/04/29 03:07:47;;;;;;;0.00;0.00;;;;;;;;;;4958800;28;20042;-85
2023/04/29 03:10:13;;;;;;;0.00;0.00;;;;;;;;;;4958507;28;20069;-85
2023/04/29 03:12:39;;;;;;;0.00;0.00;;;;;;;;;;4957364;28;20359;-85
2023/04/29 03:15:06;;;;;;;0.00;0.00;;;;;;;;;;4958352;28;20045;-85
2023/04/29 03:17:33;;;;;;;0.00;0.00;;;;;;;;;;4942496;28;20118;-86
2023/04/29 03:19:59;;;;;;;0.00;0.00;;;;;;;;;;4942282;28;20054;-85
2023/04/29 03:22:25;;;;;;;0.00;0.00;;;;;;;;;;4958308;28;20443;-85
2023/04/29 03:24:51;;;;;;;0.00;0.00;;;;;;;;;;4958449;28;20043;-86
2023/04/29 03:27:17;;;;;;;0.00;0.00;;;;;;;;;;4958057;28;20495;-86
2023/04/29 03:29:43;;;;;;;0.03;0.00;;;;;;;;;;4958164;28;20379;-85
2023/04/29 03:32:09;;;;;;;0.52;0.10;;;;;;;;;;4957969;28;20042;-85
2023/04/29 03:34:35;;;;;;;0.30;0.30;;;;;;;;;;4941998;28;20106;-85
2023/04/29 03:37:01;;;;;;;0.10;0.10;;;;;;;;;;4957916;28;20046;-85
2023/04/29 03:39:31;;;;;;;0.00;0.00;;;;;;;;;;4958078;28;20034;-85
2023/04/29 03:41:58;;;;;;;0.00;0.00;;;;;;;;;;4941794;28;20466;-85
2023/04/29 03:44:24;;;;;;;0.15;0.00;;;;;;;;;;4941882;28;20081;-85
2023/04/29 03:46:50;;;;;;;0.00;0.00;;;;;;;;;;4941711;28;20074;-85
2023/04/29 03:49:16;;;;;;;0.00;0.00;;;;;;;;;;4958009;28;20515;-86
2023/04/29 03:51:44;;;;;;;0.28;0.10;;;;;;;;;;4969828;28;20458;-85
2023/04/29 03:54:10;;;;;;;0.00;0.00;;;;;;;;;;4977164;28;20050;-85
2023/04/29 03:56:36;;;;;;;0.00;0.00;;;;;;;;;;4992899;28;20414;-85
2023/04/29 03:59:02;;;;;;;0.00;0.00;;;;;;;;;;4993126;28;20121;-85
2023/04/29 04:01:28;;;;;;;0.00;0.00;;;;;;;;;;4993011;28;20138;-85
2023/04/29 04:03:54;;;;;;;0.00;0.00;;;;;;;;;;4993119;28;20041;-86
2023/04/29 04:06:20;;;;;;;0.10;0.10;;;;;;;;;;4992859;28;20038;-85
2023/04/29 04:08:46;;;;;;;0.30;0.10;;;;;;;;;;4993149;28;20045;-85
2023/04/29 04:11:14;;;;;;;0.00;0.00;;;;;;;;;;4976669;28;20050;-85
2023/04/29 04:13:42;;;;;;;0.00;0.00;;;;;;;;;;4977172;28;20049;-85
2023/04/29 04:16:07;;;;;;;0.00;0.00;;;;;;;;;;4976867;28;20042;-85
2023/04/29 04:18:34;;;;;;;0.00;0.00;;;;;;;;;;4992826;28;20512;-85
2023/04/29 04:21:04;;;;;;;0.00;0.00;;;;;;;;;;4976322;28;20222;-85
2023/04/29 04:23:31;;;;;;;3.72;0.20;;;;;;;;;;4992544;28;20062;-85
2023/04/29 04:25:57;;;;;;;0.00;0.00;;;;;;;;;;4992201;28;20144;-86
2023/04/29 04:28:22;;;;;;;2.78;0.45;;;;;;;;;;4992720;28;20046;-85
2023/04/29 04:30:49;;;;;;;0.45;0.30;;;;;;;;;;4976114;28;20041;-85
2023/04/29 04:33:15;;;;;;;0.75;0.10;;;;;;;;;;4992383;28;20050;-85
2023/04/29 04:35:42;;;;;;;1.95;0.75;;;;;;;;;;4992598;28;20046;-85
2023/04/29 04:38:10;;;;;;;0.00;0.00;;;;;;;;;;4992321;28;20133;-85
2023/04/29 04:40:36;;;;;;;0.52;0.17;;;;;;;;;;4976206;28;20493;-85
2023/04/29 04:43:02;;;;;;;0.08;0.00;;;;;;;;;;4992062;28;20042;-85
2023/04/29 04:45:29;;;;;;;0.00;0.00;;;;;;;;;;4992614;28;20049;-85
2023/04/29 04:47:55;;;;;;;0.00;0.00;;;;;;;;;;4976036;28;20048;-85
2023/04/29 04:50:21;;;;;;;0.00;0.00;;;;;;;;;;4992343;28;20038;-85
2023/04/29 04:52:47;;;;;;;0.00;0.00;;;;;;;;;;4991723;28;20450;-85
2023/04/29 04:55:13;;;;;;;0.08;0.03;;;;;;;;;;4992216;28;20101;-85
2023/04/29 04:57:39;;;;;;;0.15;0.00;;;;;;;;;;4991970;28;20069;-84
2023/04/29 05:00:05;;;;;;;0.63;0.25;;;;;;;;;;4992197;28;20137;-86
2023/04/29 05:02:31;;;;;;;0.00;0.00;;;;;;;;;;4992377;28;20043;-86
2023/04/29 05:04:57;;;;;;;0.00;0.00;;;;;;;;;;4976210;28;20616;-85
2023/04/29 05:07:23;;;;;;;0.00;0.00;;;;;;;;;;4991832;28;20125;-85
2023/04/29 05:09:49;;;;;;;0.20;0.10;;;;;;;;;;4975834;28;20042;-85
2023/04/29 05:12:15;;;;;;;0.90;0.30;;;;;;;;;;4991892;28;20042;-85
2023/04/29 05:14:41;;;;;;;0.43;0.43;;;;;;;;;;4992162;28;20061;-85
2023/04/29 05:17:08;;;;;;;0.08;0.00;;;;;;;;;;4991768;28;20375;-86
2023/04/29 05:19:34;;;;;;;0.00;0.00;;;;;;;;;;4975796;28;20485;-85
2023/04/29 05:22:00;;;;;;;0.20;0.20;;;;;;;;;;4975555;28;20129;-85
2023/04/29 05:24:28;;;;;;;0.00;0.00;;;;;;;;;;4991980;28;20074;-86
2023/04/29 05:26:56;;;;;;;0.45;0.45;;;;;;;;;;4991722;28;20052;-85
2023/04/29 05:29:22;;;;;;;0.55;0.15;;;;;;;;;;4991917;28;20085;-85
2023/04/29 05:31:48;;;;;;;1.13;0.10;;;;;;;;;;4975399;28;20074;-85
2023/04/29 05:34:14;;;;;;;0.10;0.10;;;;;;;;;;4975854;28;20431;-85
2023/04/29 05:36:40;;;;;;;0.00;0.00;;;;;;;;;;4991016;28;20042;-86
2023/04/29 05:39:06;;;;;;;0.00;0.00;;;;;;;;;;4975552;28;20038;-85
2023/04/29 05:41:32;;;;;;;0.00;0.00;;;;;;;;;;4991517;28;20516;-85
2023/04/29 05:43:59;;;;;;;0.00;0.00;;;;;;;;;;4991843;28;20042;-85
2023/04/29 05:46:26;;;;;;;0.00;0.00;;;;;;;;;;4975461;28;20038;-86
2023/04/29 05:48:52;;;;;;;0.13;0.00;;;;;;;;;;4991777;28;20109;-86
2023/04/29 05:51:18;;;;;;;0.00;0.00;;;;;;;;;;4975397;28;20141;-86
2023/04/29 05:53:44;;;;;;;0.00;0.00;;;;;;;;;;4991591;28;20039;-86
2023/04/29 05:56:11;;;;;;;0.15;0.10;;;;;;;;;;4975827;28;20050;-86
2023/04/29 05:58:37;;;;;;;0.00;0.00;;;;;;;;;;4991580;28;20493;-86
2023/04/29 06:01:02;;;;;;;0.00;0.00;;;;;;;;;;4991982;28;20045;-86
2023/04/29 06:03:29;;;;;;;2.08;1.67;;;;;;;;;;4991676;28;20042;-86
2023/04/29 06:05:57;;;;;;;0.47;0.15;;;;;;;;;;4975780;28;20070;-86
2023/04/29 06:08:23;;;;;;;0.00;0.00;;;;;;;;;;4991739;28;20050;-85
2023/04/29 06:10:51;;;;;;;0.00;0.00;;;;;;;;;;4992066;28;20097;-85
2023/04/29 06:13:17;;;;;;;0.00;0.00;;;;;;;;;;4975013;28;20084;-86
2023/04/29 06:15:43;;;;;;;0.00;0.00;;;;;;;;;;4991726;28;20556;-86
2023/04/29 06:18:10;;;;;;;0.00;0.00;;;;;;;;;;4991427;28;20561;-86
2023/04/29 06:20:36;;;;;;;0.00;0.00;;;;;;;;;;4991514;28;20078;-86
2023/04/29 06:23:02;;;;;;;0.00;0.00;;;;;;;;;;4991354;28;20421;-86
2023/04/29 06:25:29;;;;;;;0.00;0.00;;;;;;;;;;4975388;28;20038;-86
2023/04/29 06:27:56;;;;;;;0.65;0.05;;;;;;;;;;4974912;28;20121;-85
2023/04/29 06:30:22;;;;;;;0.00;0.00;;;;;;;;;;4959324;28;20049;-89
2023/04/29 06:32:48;;;;;;;0.00;0.00;;;;;;;;;;4991293;28;20394;-87
2023/04/29 06:35:14;;;;;;;0.00;0.00;;;;;;;;;;4991643;28;20050;-85
2023/04/29 06:37:41;;;;;;;0.00;0.00;;;;;;;;;;4991122;28;20129;-85
2023/04/29 06:40:07;;;;;;;0.00;0.00;;;;;;;;;;4991597;28;20046;-86
2023/04/29 06:42:33;;;;;;;0.08;0.08;;;;;;;;;;4990860;28;20038;-85
2023/04/29 06:44:59;;;;;;;0.17;0.00;;;;;;;;;;4991089;28;20479;-86
2023/04/29 06:47:25;;;;;;;0.00;0.00;;;;;;;;;;4991393;28;20042;-86
2023/04/29 06:49:52;;;;;;;0.38;0.38;;;;;;;;;;4978730;28;20046;-85
2023/04/29 06:52:18;;;;;;;0.20;0.08;;;;;;;;;;4993908;28;20133;-87
2023/04/29 06:54:44;;;;;;;0.00;0.00;;;;;;;;;;4994500;28;20050;-88
2023/04/29 06:57:10;;;;;;;0.00;0.00;;;;;;;;;;4994587;28;20046;-88
2023/04/29 06:59:36;;;;;;;1.30;0.32;;;;;;;;;;4994502;28;20129;-90
2023/04/29 07:02:02;;;;;;;0.00;0.00;;;;;;;;;;4994449;28;20097;-86
2023/04/29 07:04:28;;;;;;;0.20;0.10;;;;;;;;;;4994177;28;20031;-88
2023/04/29 07:06:54;;;;;;;0.13;0.05;;;;;;;;;;4978218;28;20085;-86
2023/04/29 07:09:22;;;;;;;0.00;0.00;;;;;;;;;;4978124;28;20096;-90
2023/04/29 07:11:48;;;;;;;0.00;0.00;;;;;;;;;;4979270;28;20129;-86
2023/04/29 07:14:14;;;;;;;0.28;0.28;;;;;;;;;;4993816;28;20081;-86
2023/04/29 07:16:41;;;;;;;0.00;0.00;;;;;;;;;;4978074;28;20093;-86
2023/04/29 07:19:07;;;;;;;0.43;0.03;;;;;;;;;;4977763;28;20133;-86
2023/04/29 07:21:33;;;;;;;0.00;0.00;;;;;;;;;;4994214;28;20048;-86
2023/04/29 07:24:01;;;;;;;0.00;0.00;;;;;;;;;;4993736;28;20042;-87
2023/04/29 07:26:27;;;;;;;0.00;0.00;;;;;;;;;;4977636;28;20042;-86
2023/04/29 07:28:53;;;;;;;0.10;0.10;;;;;;;;;;4993574;28;20544;-86
2023/04/29 07:31:20;;;;;;;0.15;0.05;;;;;;;;;;4993820;28;20125;-86
2023/04/29 07:33:46;;;;;;;0.00;0.00;;;;;;;;;;4993600;28;20082;-86
2023/04/29 07:36:12;;;;;;;0.00;0.00;;;;;;;;;;4994071;28;20133;-87
2023/04/29 07:38:39;;;;;;;0.00;0.00;;;;;;;;;;4993295;28;20455;-86
2023/04/29 07:41:05;;;;;;;0.05;0.05;;;;;;;;;;4993654;28;20047;-86
2023/04/29 07:43:31;;;;;;;0.30;0.20;;;;;;;;;;4976969;28;20340;-88
2023/04/29 07:45:57;;;;;;;0.00;0.00;;;;;;;;;;4993442;28;20096;-89
2023/04/29 07:48:23;;;;;;;0.00;0.00;;;;;;;;;;4993158;28;20039;-87
2023/04/29 07:50:49;;;;;;;0.00;0.00;;;;;;;;;;4993406;28;20042;-87
2023/04/29 07:53:16;;;;;;;0.00;0.00;;;;;;;;;;4993086;28;20046;-87
2023/04/29 07:55:46;;;;;;;0.00;0.00;;;;;;;;;;4977717;28;20042;-87
2023/04/29 07:58:12;;;;;;;1.10;0.20;;;;;;;;;;4992499;28;20052;-88
2023/04/29 08:00:38;;;;;;;0.35;0.20;;;;;;;;;;4993154;28;20424;-88
2023/04/29 08:03:04;;;;;;;0.40;0.22;;;;;;;;;;4992923;28;20153;-87
2023/04/29 08:05:30;;;;;;;0.30;0.00;;;;;;;;;;4993172;28;20044;-87
2023/04/29 08:07:56;;;;;;;0.00;0.00;;;;;;;;;;4992950;28;20069;-88
2023/04/29 08:10:22;;;;;;;0.57;0.32;;;;;;;;;;4977342;28;20345;-89
2023/04/29 08:12:49;;;;;;;0.00;0.00;;;;;;;;;;4992855;28;20042;-87
2023/04/29 08:15:17;;;;;;;0.00;0.00;;;;;;;;;;4994267;28;20046;-87
2023/04/29 08:17:43;;;;;;;1.95;0.20;;;;;;;;;;4993356;28;20042;-88
2023/04/29 08:20:09;;;;;;;0.00;0.00;;;;;;;;;;4976258;28;20489;-87
2023/04/29 08:22:35;;;;;;;0.80;0.80;;;;;;;;;;4992998;28;20205;-87
2023/04/29 08:25:02;;;;;;;0.00;0.00;;;;;;;;;;4992937;28;20482;-86
2023/04/29 08:27:28;;;;;;;0.00;0.00;;;;;;;;;;4976567;28;20482;-88
2023/04/29 08:29:55;;;;;;;0.00;0.00;;;;;;;;;;4992619;28;20181;-87
2023/04/29 08:32:21;;;;;;;0.00;0.00;;;;;;;;;;4976268;28;20081;-87
2023/04/29 08:34:47;;;;;;;0.00;0.00;;;;;;;;;;4976064;28;20038;-87
2023/04/29 08:37:14;;;;;;;0.00;0.00;;;;;;;;;;4992594;28;20046;-87
2023/04/29 08:39:42;;;;;;;0.00;0.00;;;;;;;;;;4992348;28;20409;-87
2023/04/29 08:42:11;;;;;;;0.43;0.10;;;;;;;;;;4976192;28;20078;-87
2023/04/29 08:44:38;;;;;;;0.10;0.10;;;;;;;;;;4992165;28;20052;-87
2023/04/29 08:47:05;;;;;;;0.00;0.00;;;;;;;;;;4992965;28;20046;-87
2023/04/29 08:49:36;;;;;;;0.10;0.05;;;;;;;;;;4992133;28;20043;-89
2023/04/29 08:52:03;;;;;;;0.00;0.00;;;;;;;;;;4975799;28;20058;-87
2023/04/29 08:54:29;;;;;;;0.00;0.00;;;;;;;;;;4975703;28;20042;-88
2023/04/29 08:56:56;;;;;;;0.00;0.00;;;;;;;;;;4992437;28;20038;-88
2023/04/29 08:59:23;;;;;;;0.00;0.00;;;;;;;;;;4991810;28;20549;-87
2023/04/29 09:01:51;;;;;;;0.00;0.00;;;;;;;;;;4975930;28;20043;-86
2023/04/29 09:04:23;;;;;;;0.05;0.00;;;;;;;;;;4991868;28;20119;-88
2023/04/29 09:06:49;;;;;;;0.00;0.00;;;;;;;;;;4992520;28;20390;-87
2023/04/29 09:09:15;;;;;;;0.00;0.00;;;;;;;;;;4991605;28;20042;-87
2023/04/29 09:11:41;;;;;;;0.00;0.00;;;;;;;;;;4991382;28;20493;-87
2023/04/29 09:14:08;;;;;;;0.15;0.10;;;;;;;;;;4991506;28;20495;-86
2023/04/29 09:16:37;;;;;;;0.00;0.00;;;;;;;;;;4992389;28;20042;-87
2023/04/29 09:19:02;;;;;;;0.00;0.00;;;;;;;;;;4975567;28;20087;-87
2023/04/29 09:21:32;;;;;;;0.00;0.00;;;;;;;;;;4991620;28;20100;-86
2023/04/29 09:24:02;;;;;;;0.45;0.10;;;;;;;;;;4991906;28;20149;-87
2023/04/29 09:26:41;;;;;;;0.00;0.00;;;;;;;;;;4975431;28;20042;-87
2023/04/29 09:29:10;;;;;;;0.93;0.35;;;;;;;;;;4975387;28;20046;-87
2023/04/29 09:31:38;;;;;;;0.00;0.00;;;;;;;;;;4991968;28;20390;-87
2023/04/29 09:34:04;;;;;;;0.10;0.00;;;;;;;;;;4975146;28;20051;-87
2023/04/29 09:36:35;;;;;;;1.45;0.20;;;;;;;;;;4991514;28;20049;-88
2023/04/29 09:39:01;;;;;;;0.17;0.10;;;;;;;;;;4991587;28;20389;-87
2023/04/29 09:41:28;;;;;;;0.00;0.00;;;;;;;;;;4975381;28;20053;-87
2023/04/29 09:44:06;;;;;;;0.10;0.00;;;;;;;;;;4974874;28;20046;-87
2023/04/29 09:46:33;;;;;;;0.52;0.13;;;;;;;;;;4975375;28;20129;-88
2023/04/29 09:49:00;;;;;;;0.00;0.00;;;;;;;;;;4975452;28;20061;-88
2023/04/29 09:51:26;;;;;;;0.00;0.00;;;;;;;;;;4991419;28;20138;-87
2023/04/29 09:53:52;;;;;;;0.00;0.00;;;;;;;;;;4975265;28;20057;-88
2023/04/29 09:56:18;;;;;;;0.00;0.00;;;;;;;;;;4991249;28;20062;-88
2023/04/29 09:58:44;;;;;;;0.00;0.00;;;;;;;;;;4991521;28;20285;-87
2023/04/29 10:01:13;;;;;;;0.00;0.00;;;;;;;;;;4974762;28;20133;-87
2023/04/29 10:03:41;;;;;;;0.00;0.00;;;;;;;;;;4975258;28;20038;-88
2023/04/29 10:06:08;;;;;;;0.00;0.00;;;;;;;;;;4991148;28;20133;-87
2023/04/29 10:08:34;;;;;;;0.10;0.00;;;;;;;;;;4975124;28;20135;-87
2023/04/29 10:11:02;;;;;;;0.15;0.00;;;;;;;;;;4991557;28;20038;-88
2023/04/29 10:13:28;;;;;;;0.35;0.10;;;;;;;;;;4975146;28;20043;-87
2023/04/29 10:16:00;;;;;;;0.00;0.00;;;;;;;;;;4990996;28;20042;-88
2023/04/29 10:18:30;;;;;;;0.00;0.00;;;;;;;;;;4975159;28;20083;-88
2023/04/29 10:20:57;;;;;;;0.00;0.00;;;;;;;;;;4990811;28;20046;-87
2023/04/29 10:23:24;;;;;;;0.00;0.00;;;;;;;;;;4978658;28;20042;-86
2023/04/29 10:25:52;;;;;;;0.00;0.00;;;;;;;;;;4978777;28;20081;-86
2023/04/29 10:28:18;;;;;;;0.22;0.00;;;;;;;;;;4994885;28;20042;-87
2023/04/29 10:30:44;;;;;;;0.00;0.00;;;;;;;;;;4994549;28;20046;-88
2023/04/29 10:33:11;;;;;;;0.00;0.00;;;;;;;;;;4978352;28;20038;-88
2023/04/29 10:35:38;;;;;;;0.00;0.00;;;;;;;;;;4978444;28;20038;-87
2023/04/29 10:38:24;;;;;;;0.00;0.00;;;;;;;;;;4978435;28;20111;-87
2023/04/29 10:40:51;;;;;;;0.00;0.00;;;;;;;;;;4994514;28;20042;-87
2023/04/29 10:43:22;;;;;;;0.63;0.03;;;;;;;;;;4994455;28;20039;-88
2023/04/29 10:45:48;;;;;;;0.00;0.00;;;;;;;;;;4994552;28;20509;-87
2023/04/29 10:48:14;;;;;;;0.00;0.00;;;;;;;;;;4994527;28;20046;-87
2023/04/29 10:50:46;;;;;;;0.00;0.00;;;;;;;;;;4994734;28;20042;-87
2023/04/29 10:53:13;;;;;;;0.00;0.00;;;;;;;;;;4994590;28;20068;-88
2023/04/29 10:55:39;;;;;;;0.00;0.00;;;;;;;;;;4994399;28;20203;-88
2023/04/29 10:58:05;;;;;;;0.00;0.00;;;;;;;;;;4994578;28;20080;-88
2023/04/29 11:00:37;;;;;;;0.00;0.00;;;;;;;;;;4994121;28;20053;-88
2023/04/29 11:03:05;;;;;;;0.00;0.00;;;;;;;;;;4994463;28;20552;-88
2023/04/29 11:05:35;;;;;;;0.00;0.00;;;;;;;;;;4994084;28;20141;-87
2023/04/29 11:08:11;;;;;;;0.00;0.00;;;;;;;;;;4994325;28;20038;-87
2023/04/29 11:10:40;;;;;;;0.00;0.00;;;;;;;;;;4994199;28;20464;-87
2023/04/29 11:13:26;;;;;;;0.00;0.00;;;;;;;;;;4994397;28;20050;-87
2023/04/29 11:15:53;;;;;;;0.00;0.00;;;;;;;;;;4994227;28;20053;-88
2023/04/29 11:18:19;;;;;;;0.00;0.00;;;;;;;;;;4994235;28;20520;-87
2023/04/29 11:21:04;;;;;;;0.00;0.00;;;;;;;;;;4977786;28;20137;-88
2023/04/29 11:23:30;;;;;;;0.00;0.00;;;;;;;;;;4977901;28;20366;-87
2023/04/29 11:25:56;;;;;;;0.00;0.00;;;;;;;;;;4994114;28;20038;-88
2023/04/29 11:28:27;;;;;;;0.00;0.00;;;;;;;;;;4993886;28;20035;-88
2023/04/29 11:30:54;;;;;;;0.00;0.00;;;;;;;;;;4977610;28;20046;-87
2023/04/29 11:33:20;;;;;;;0.30;0.28;;;;;;;;;;4993049;28;20042;-88
2023/04/29 11:35:46;;;;;;;0.10;0.08;;;;;;;;;;4977859;28;20057;-88
2023/04/29 11:38:12;;;;;;;0.00;0.00;;;;;;;;;;4978466;28;20046;-87
2023/04/29 11:40:42;;;;;;;0.05;0.00;;;;;;;;;;4993463;28;20042;-87
2023/04/29 11:43:08;;;;;;;0.25;0.10;;;;;;;;;;4994013;28;20489;-87
2023/04/29 11:45:39;;;;;;;0.00;0.00;;;;;;;;;;4977976;28;20045;-88
2023/04/29 11:48:06;;;;;;;0.00;0.00;;;;;;;;;;4978430;28;20068;-88
2023/04/29 11:50:32;;;;;;;0.00;0.00;;;;;;;;;;4978171;28;20042;-88
2023/04/29 11:52:58;;;;;;;0.00;0.00;;;;;;;;;;4993381;28;20490;-88
2023/04/29 11:55:25;;;;;;;0.00;0.00;;;;;;;;;;4993205;28;20141;-88
2023/04/29 11:57:52;;;;;;;0.00;0.00;;;;;;;;;;4993670;28;20497;-89
2023/04/29 12:00:18;;;;;;;0.00;0.00;;;;;;;;;;4976750;28;20046;-89
2023/04/29 12:02:47;;;;;;;0.00;0.00;;;;;;;;;;4993092;28;20088;-88
2023/04/29 12:05:14;;;;;;;0.00;0.00;;;;;;;;;;4977159;28;20045;-88
2023/04/29 12:07:40;;;;;;;0.00;0.00;;;;;;;;;;4993079;28;20043;-87
2023/04/29 12:10:10;;;;;;;0.00;0.00;;;;;;;;;;4993198;28;20424;-88
2023/04/29 12:12:39;;;;;;;0.00;0.00;;;;;;;;;;4992680;28;20050;-87
2023/04/29 12:15:06;;;;;;;0.00;0.00;;;;;;;;;;4993123;28;20129;-87
2023/04/29 12:17:32;;;;;;;0.00;0.00;;;;;;;;;;4992858;28;20417;-87
2023/04/29 12:19:58;;;;;;;0.75;0.03;;;;;;;;;;4976656;28;20050;-88
2023/04/29 12:22:30;;;;;;;0.00;0.00;;;;;;;;;;4976526;28;20046;-87
2023/04/29 12:24:57;;;;;;;0.00;0.00;;;;;;;;;;4992999;28;20072;-88
2023/04/29 12:27:23;;;;;;;0.00;0.00;;;;;;;;;;4992922;28;20034;-88
2023/04/29 12:29:51;;;;;;;0.00;0.00;;;;;;;;;;4977018;28;20093;-88
2023/04/29 12:32:17;;;;;;;0.00;0.00;;;;;;;;;;4976307;28;20042;-88
2023/04/29 12:34:46;;;;;;;0.00;0.00;;;;;;;;;;4992790;28;20042;-88
2023/04/29 12:37:12;;;;;;;0.20;0.20;;;;;;;;;;4992416;28;20053;-88
2023/04/29 12:39:38;;;;;;;0.00;0.00;;;;;;;;;;4992853;28;20057;-87
2023/04/29 12:42:04;;;;;;;0.00;0.00;;;;;;;;;;4992562;28;20502;-88
2023/04/29 12:44:37;;;;;;;0.00;0.00;;;;;;;;;;4992496;28;20097;-89
2023/04/29 12:47:08;;;;;;;0.00;0.00;;;;;;;;;;4976040;28;20442;-88
2023/04/29 12:49:34;;;;;;;0.00;0.00;;;;;;;;;;4976405;28;20149;-87
2023/04/29 12:52:01;;;;;;;0.00;0.00;;;;;;;;;;4991890;28;20089;-88
2023/04/29 12:54:27;;;;;;;0.00;0.00;;;;;;;;;;4992442;28;20046;-89
2023/04/29 12:56:53;;;;;;;0.05;0.00;;;;;;;;;;4992107;28;20043;-87
2023/04/29 12:59:19;;;;;;;0.00;0.00;;;;;;;;;;4976164;28;20414;-88
2023/04/29 13:01:45;;;;;;;0.00;0.00;;;;;;;;;;4991989;28;20073;-89
2023/04/29 13:04:11;;;;;;;0.00;0.00;;;;;;;;;;4975682;28;20042;-88
2023/04/29 13:06:38;;;;;;;0.00;0.00;;;;;;;;;;4975544;28;20042;-88
2023/04/29 13:09:05;;;;;;;0.00;0.00;;;;;;;;;;4992011;28;20065;-89
2023/04/29 13:11:32;;;;;;;0.00;0.00;;;;;;;;;;4991840;28;20057;-87
2023/04/29 13:13:58;;;;;;;0.00;0.00;;;;;;;;;;4991896;28;20042;-87
2023/04/29 13:16:24;;;;;;;0.00;0.00;;;;;;;;;;4991086;28;20046;-88
2023/04/29 13:18:50;;;;;;;0.00;0.00;;;;;;;;;;4962642;28;20043;-88
2023/04/29 13:21:16;;;;;;;0.00;0.00;;;;;;;;;;4971794;28;20035;-88
2023/04/29 13:23:42;;;;;;;0.00;0.00;;;;;;;;;;4956267;28;20400;-88
2023/04/29 13:26:08;;;;;;;0.00;0.00;;;;;;;;;;4972531;28;20078;-87
2023/04/29 13:28:34;;;;;;;0.00;0.00;;;;;;;;;;4972305;28;20103;-88
2023/04/29 13:31:00;;;;;;;0.00;0.00;;;;;;;;;;4972486;28;20122;-87
2023/04/29 13:33:26;;;;;;;0.00;0.00;;;;;;;;;;4972462;28;20135;-88
2023/04/29 13:35:52;;;;;;;0.00;0.00;;;;;;;;;;4956335;28;20050;-88
2023/04/29 13:38:18;;;;;;;0.00;0.00;;;;;;;;;;4955934;28;20058;-88
2023/04/29 13:40:44;;;;;;;0.00;0.00;;;;;;;;;;4972321;28;20074;-88
2023/04/29 13:43:10;;;;;;;0.00;0.00;;;;;;;;;;4956018;28;20043;-87
2023/04/29 13:45:37;;;;;;;0.32;0.10;;;;;;;;;;4956124;28;20197;-87
2023/04/29 13:48:03;;;;;;;0.00;0.00;;;;;;;;;;4971867;28;20035;-87
2023/04/29 13:50:29;;;;;;;0.00;0.00;;;;;;;;;;4972046;28;20042;-87
2023/04/29 13:52:56;;;;;;;0.10;0.10;;;;;;;;;;4971475;28;20413;-88
2023/04/29 13:55:23;;;;;;;0.00;0.00;;;;;;;;;;4956413;28;20046;-88
2023/04/29 13:57:49;;;;;;;0.00;0.00;;;;;;;;;;4976487;28;20050;-88
2023/04/29 14:00:16;;;;;;;0.13;0.13;;;;;;;;;;4976857;28;20039;-88
2023/04/29 14:02:42;;;;;;;0.30;0.13;;;;;;;;;;4959802;28;20142;-87
2023/04/29 14:05:09;;;;;;;0.05;0.03;;;;;;;;;;4976178;28;20039;-88
2023/04/29 14:07:35;;;;;;;0.22;0.10;;;;;;;;;;4975616;28;20042;-87
2023/04/29 14:10:01;;;;;;;0.75;0.13;;;;;;;;;;4959848;28;20053;-90
2023/04/29 14:12:27;;;;;;;0.00;0.00;;;;;;;;;;4975690;28;20472;-88
2023/04/29 14:14:53;;;;;;;0.00;0.00;;;;;;;;;;4975708;28;20042;-88
2023/04/29 14:17:19;;;;;;;0.75;0.10;;;;;;;;;;4975318;28;20103;-88
2023/04/29 14:19:45;;;;;;;0.00;0.00;;;;;;;;;;4975498;28;20446;-88
2023/04/29 14:22:11;;;;;;;0.22;0.22;;;;;;;;;;4975263;28;20035;-88
2023/04/29 14:24:38;;;;;;;0.00;0.00;;;;;;;;;;4975542;28;20479;-88
2023/04/29 14:27:04;;;;;;;0.00;0.00;;;;;;;;;;4975350;28;20081;-86
2023/04/29 14:29:30;;;;;;;0.00;0.00;;;;;;;;;;4975860;28;20493;-87
2023/04/29 14:31:56;;;;;;;0.00;0.00;;;;;;;;;;4959259;28;20039;-89
2023/04/29 14:34:22;;;;;;;0.05;0.00;;;;;;;;;;4975470;28;20391;-87
2023/04/29 14:36:48;;;;;;;0.80;0.28;;;;;;;;;;4975217;28;20042;-88
2023/04/29 14:39:14;;;;;;;0.47;0.30;;;;;;;;;;4975715;28;20046;-88
2023/04/29 14:41:40;;;;;;;0.00;0.00;;;;;;;;;;4959340;28;20129;-88